createdAt,value
2017-07-15T00:01:31.626Z,55.70
2017-07-15T00:03:57.797Z,48.57
2017-07-15T00:06:23.944Z,54.73
2017-07-15T00:11:23.061Z,56.60
2017-07-15T00:13:49.224Z,50.93
2017-07-15T00:16:15.408Z,53.93
2017-07-15T00:18:42.402Z,52.50
2017-07-15T00:21:08.583Z,53.50
2017-07-15T00:23:35.484Z,43.40
2017-07-15T00:26:01.791Z,40.70
2017-07-15T00:28:27.937Z,42.97
2017-07-15T00:30:54.079Z,39.87
2017-07-15T00:33:20.804Z,33.37
2017-07-15T00:35:46.955Z,30.57
2017-07-15T00:38:13.106Z,24.73
2017-07-15T00:40:39.280Z,22.80
2017-07-15T00:43:06.174Z,24.43
2017-07-15T00:45:32.324Z,20.93
2017-07-15T00:47:58.510Z,22.80
2017-07-15T00:50:24.665Z,22.80
2017-07-15T00:52:50.834Z,20.93
2017-07-15T00:55:17.833Z,22.43
2017-07-15T00:57:43.969Z,19.63
2017-07-15T01:00:10.995Z,17.10
2017-07-15T01:02:38.528Z,22.50
2017-07-15T01:05:05.773Z,21.23
2017-07-15T01:07:31.904Z,21.70
2017-07-15T01:09:58.053Z,25.10
2017-07-15T01:12:24.193Z,27.40
2017-07-15T01:14:50.329Z,18.70
2017-07-15T01:17:16.791Z,13.77
2017-07-15T01:19:43.678Z,16.30
2017-07-15T01:22:09.867Z,26.47
2017-07-15T01:24:36.761Z,22.10
2017-07-15T01:27:02.932Z,18.90
2017-07-15T01:29:29.368Z,17.47
2017-07-15T01:31:55.519Z,18.17
2017-07-15T01:34:21.662Z,20.30
2017-07-15T01:36:48.560Z,16.77
2017-07-15T01:39:15.565Z,18.87
2017-07-15T01:41:42.449Z,20.83
2017-07-15T01:44:08.577Z,26.07
2017-07-15T01:46:34.827Z,19.90
2017-07-15T01:49:00.979Z,22.07
2017-07-15T01:51:27.128Z,20.23
2017-07-15T01:53:53.408Z,15.77
2017-07-15T01:56:19.556Z,13.37
2017-07-15T01:58:45.709Z,18.80
2017-07-15T02:01:13.198Z,21.83
2017-07-15T02:03:40.749Z,17.57
2017-07-15T02:06:06.904Z,15.90
2017-07-15T02:08:33.816Z,16.07
2017-07-15T02:10:59.948Z,19.73
2017-07-15T02:13:27.055Z,19.93
2017-07-15T02:15:56.412Z,11.80
2017-07-15T02:18:22.568Z,23.60
2017-07-15T02:20:48.695Z,19.70
2017-07-15T02:23:16.960Z,11.07
2017-07-15T02:25:43.097Z,11.07
2017-07-15T02:28:10.094Z,17.37
2017-07-15T02:30:36.269Z,23.63
2017-07-15T02:33:02.413Z,17.60
2017-07-15T02:35:28.552Z,17.83
2017-07-15T02:37:54.717Z,16.50
2017-07-15T02:40:20.875Z,20.70
2017-07-15T02:42:47.006Z,22.23
2017-07-15T02:45:13.956Z,24.83
2017-07-15T02:47:40.096Z,20.57
2017-07-15T02:50:06.257Z,19.07
2017-07-15T02:52:32.419Z,24.33
2017-07-15T02:54:58.600Z,22.47
2017-07-15T02:57:24.774Z,25.67
2017-07-15T02:59:52.562Z,26.40
2017-07-15T03:02:19.596Z,19.17
2017-07-15T03:04:50.424Z,19.20
2017-07-15T03:07:16.557Z,27.17
2017-07-15T03:09:42.681Z,16.80
2017-07-15T03:12:12.136Z,18.33
2017-07-15T03:14:38.279Z,19.27
2017-07-15T03:17:04.435Z,17.90
2017-07-15T03:19:30.592Z,29.03
2017-07-15T03:21:56.724Z,23.87
2017-07-15T03:24:22.864Z,25.13
2017-07-15T03:27:13.584Z,23.23
2017-07-15T03:29:39.730Z,15.53
2017-07-15T03:32:05.893Z,17.63
2017-07-15T03:34:32.072Z,31.33
2017-07-15T03:36:58.937Z,23.07
2017-07-15T03:39:25.060Z,25.13
2017-07-15T03:41:51.206Z,21.30
2017-07-15T03:44:17.330Z,17.67
2017-07-15T03:46:43.468Z,19.20
2017-07-15T03:49:10.244Z,19.10
2017-07-15T03:51:36.403Z,20.53
2017-07-15T03:54:03.064Z,20.13
2017-07-15T03:56:29.965Z,20.47
2017-07-15T03:58:56.092Z,27.23
2017-07-15T04:01:22.233Z,20.57
2017-07-15T04:03:50.893Z,21.93
2017-07-15T04:06:20.020Z,17.40
2017-07-15T04:08:46.157Z,25.60
2017-07-15T04:11:14.237Z,20.87
2017-07-15T04:13:40.356Z,24.00
2017-07-15T04:16:06.498Z,22.90
2017-07-15T04:18:32.665Z,18.17
2017-07-15T04:20:58.791Z,19.37
2017-07-15T04:23:24.929Z,22.47
2017-07-15T04:25:51.085Z,15.60
2017-07-15T04:28:17.972Z,17.93
2017-07-15T04:30:44.125Z,15.97
2017-07-15T04:33:12.478Z,20.30
2017-07-15T04:35:38.627Z,21.27
2017-07-15T04:38:04.772Z,20.40
2017-07-15T04:40:31.743Z,20.40
2017-07-15T04:42:57.872Z,24.30
2017-07-15T04:45:24.057Z,19.60
2017-07-15T04:47:51.018Z,22.67
2017-07-15T04:50:17.167Z,20.73
2017-07-15T04:52:43.297Z,25.73
2017-07-15T04:55:11.126Z,22.03
2017-07-15T04:57:38.006Z,23.93
2017-07-15T05:00:04.129Z,28.70
2017-07-15T05:02:30.866Z,28.03
2017-07-15T05:04:59.433Z,30.20
2017-07-15T05:07:26.980Z,31.50
2017-07-15T05:09:53.959Z,37.27
2017-07-15T05:12:21.036Z,34.90
2017-07-15T05:14:47.168Z,41.20
2017-07-15T05:17:14.719Z,41.40
2017-07-15T05:19:40.858Z,42.37
2017-07-15T05:22:06.992Z,36.73
2017-07-15T05:24:33.151Z,40.37
2017-07-15T05:26:59.283Z,41.10
2017-07-15T05:29:25.421Z,49.90
2017-07-15T05:31:51.575Z,46.90
2017-07-15T05:34:17.715Z,40.47
2017-07-15T05:36:44.609Z,35.67
2017-07-15T05:39:12.373Z,48.80
2017-07-15T05:41:38.533Z,54.80
2017-07-15T05:44:04.680Z,58.20
2017-07-15T05:46:31.678Z,59.27
2017-07-15T05:48:57.830Z,66.33
2017-07-15T05:51:24.005Z,54.17
2017-07-15T05:53:50.996Z,72.83
2017-07-15T05:56:17.141Z,57.33
2017-07-15T05:58:43.293Z,54.13
2017-07-15T06:01:10.625Z,58.73
2017-07-15T06:03:36.777Z,57.93
2017-07-15T06:06:03.283Z,51.67
2017-07-15T06:08:34.969Z,59.13
2017-07-15T06:11:01.115Z,50.40
2017-07-15T06:13:27.255Z,45.83
2017-07-15T06:15:54.204Z,52.53
2017-07-15T06:18:20.345Z,49.13
2017-07-15T06:20:46.506Z,46.97
2017-07-15T06:23:13.275Z,59.10
2017-07-15T06:25:40.176Z,63.60
2017-07-15T06:28:06.316Z,62.67
2017-07-15T06:30:32.482Z,61.30
2017-07-15T06:32:59.378Z,58.43
2017-07-15T06:35:25.540Z,56.30
2017-07-15T06:37:51.703Z,51.03
2017-07-15T06:40:17.855Z,57.17
2017-07-15T06:42:44.031Z,58.23
2017-07-15T06:45:11.353Z,53.33
2017-07-15T06:47:37.493Z,52.77
2017-07-15T06:50:03.647Z,53.50
2017-07-15T06:52:31.474Z,53.53
2017-07-15T06:54:57.623Z,53.37
2017-07-15T06:57:23.783Z,53.00
2017-07-15T06:59:50.795Z,47.43
2017-07-15T07:02:16.933Z,56.43
2017-07-15T07:04:43.084Z,52.00
2017-07-15T07:07:11.022Z,40.13
2017-07-15T07:09:43.321Z,43.97
2017-07-15T07:12:09.485Z,44.40
2017-07-15T07:14:36.715Z,49.90
2017-07-15T07:17:02.847Z,36.13
2017-07-15T07:19:29.015Z,38.40
2017-07-15T07:21:55.153Z,36.57
2017-07-15T07:24:21.326Z,45.10
2017-07-15T07:26:49.721Z,37.77
2017-07-15T07:29:15.867Z,50.07
2017-07-15T07:31:42.012Z,40.13
2017-07-15T07:34:08.187Z,39.30
2017-07-15T07:36:35.054Z,44.43
2017-07-15T07:39:01.209Z,42.33
2017-07-15T07:41:27.407Z,42.00
2017-07-15T07:43:54.311Z,39.63
2017-07-15T07:46:20.443Z,36.07
2017-07-15T07:48:47.009Z,36.40
2017-07-15T07:51:13.650Z,35.00
2017-07-15T07:53:40.613Z,40.93
2017-07-15T07:56:06.799Z,35.90
2017-07-15T07:58:32.951Z,37.73
2017-07-15T08:00:59.097Z,35.47
2017-07-15T08:03:25.276Z,37.80
2017-07-15T08:05:51.422Z,44.33
2017-07-15T08:08:18.161Z,52.37
2017-07-15T08:10:46.543Z,47.27
2017-07-15T08:13:12.737Z,36.80
2017-07-15T08:15:38.870Z,43.53
2017-07-15T08:18:06.213Z,41.23
2017-07-15T08:20:32.388Z,39.07
2017-07-15T08:22:59.268Z,52.33
2017-07-15T08:25:26.048Z,37.50
2017-07-15T08:27:52.186Z,45.20
2017-07-15T08:30:18.326Z,41.30
2017-07-15T08:32:44.532Z,35.77
2017-07-15T08:35:11.449Z,36.40
2017-07-15T08:37:37.604Z,37.00
2017-07-15T08:40:03.783Z,35.70
2017-07-15T08:42:29.956Z,36.77
2017-07-15T08:44:56.136Z,41.87
2017-07-15T08:47:23.159Z,43.13
2017-07-15T08:49:49.340Z,43.90
2017-07-15T08:52:15.491Z,39.73
2017-07-15T08:54:41.706Z,35.13
2017-07-15T08:57:09.577Z,35.23
2017-07-15T08:59:37.352Z,36.53
2017-07-15T09:02:04.500Z,34.60
2017-07-15T09:04:31.392Z,30.90
2017-07-15T09:06:57.544Z,25.60
2017-07-15T09:09:37.472Z,27.90
2017-07-15T09:12:06.333Z,27.50
2017-07-15T09:14:32.510Z,23.20
2017-07-15T09:16:58.722Z,22.70
2017-07-15T09:19:24.861Z,20.83
2017-07-15T09:21:51.003Z,17.47
2017-07-15T09:24:17.295Z,19.00
2017-07-15T09:26:44.187Z,18.40
2017-07-15T13:24:39.235Z,11.10
2017-07-15T13:27:06.178Z,4.93
2017-07-15T13:29:32.325Z,6.23
2017-07-15T13:31:58.969Z,7.80
2017-07-15T13:34:25.127Z,5.30
2017-07-15T13:36:52.024Z,4.87
2017-07-15T13:39:18.201Z,2.60
2017-07-15T13:41:44.338Z,5.50
2017-07-15T13:44:10.487Z,2.53
2017-07-15T13:46:37.452Z,4.90
2017-07-15T13:49:03.579Z,3.83
2017-07-15T13:51:30.693Z,5.10
2017-07-15T13:53:56.879Z,3.27
2017-07-15T13:56:23.018Z,2.93
2017-07-15T13:58:49.172Z,3.10
2017-07-15T14:01:16.102Z,4.87
2017-07-15T14:03:42.238Z,2.70
2017-07-15T14:06:09.329Z,11.83
2017-07-15T14:08:35.891Z,6.27
2017-07-15T14:11:02.101Z,5.80
2017-07-15T14:13:28.282Z,2.83
2017-07-15T14:15:54.482Z,1.87
2017-07-15T14:18:21.364Z,3.97
2017-07-15T14:20:48.364Z,1.97
2017-07-15T14:23:14.535Z,5.57
2017-07-15T14:25:41.069Z,9.13
2017-07-15T14:28:08.626Z,2.40
2017-07-15T14:30:37.328Z,2.60
2017-07-15T14:33:03.537Z,2.83
2017-07-15T14:35:29.679Z,3.27
2017-07-15T14:38:03.694Z,5.93
2017-07-15T14:40:30.595Z,2.07
2017-07-15T14:42:56.742Z,1.80
2017-07-15T14:45:22.936Z,4.70
2017-07-15T14:47:49.065Z,3.60
2017-07-15T14:50:16.223Z,3.93
2017-07-15T14:52:42.895Z,5.97
2017-07-15T14:55:09.069Z,4.93
2017-07-15T14:57:35.288Z,3.87
2017-07-15T15:00:02.221Z,4.97
2017-07-15T15:02:28.404Z,5.17
2017-07-15T15:04:55.301Z,5.77
2017-07-15T15:07:21.638Z,2.23
2017-07-15T15:09:47.805Z,11.63
2017-07-15T15:12:14.711Z,2.63
2017-07-15T15:14:41.431Z,3.43
2017-07-15T15:17:07.828Z,4.23
2017-07-15T15:19:36.097Z,4.57
2017-07-15T15:22:03.027Z,4.07
2017-07-15T15:24:36.027Z,3.53
2017-07-15T15:27:13.996Z,3.53
2017-07-15T15:29:42.276Z,4.00
2017-07-15T15:32:08.401Z,7.00
2017-07-15T15:34:35.177Z,7.23
2017-07-15T15:37:01.399Z,3.50
2017-07-15T15:39:27.875Z,9.47
2017-07-15T15:41:54.190Z,6.03
2017-07-15T15:44:20.661Z,3.43
2017-07-15T15:46:46.818Z,3.43
2017-07-15T15:49:14.673Z,3.67
2017-07-15T15:51:40.866Z,8.53
2017-07-15T15:54:07.029Z,2.60
2017-07-15T15:56:34.338Z,3.13
2017-07-15T15:59:00.546Z,3.80
2017-07-15T16:01:27.425Z,3.63
2017-07-15T16:03:53.603Z,2.17
2017-07-15T16:06:19.764Z,10.10
2017-07-15T16:08:45.948Z,4.40
2017-07-15T16:11:12.137Z,5.70
2017-07-15T16:13:38.311Z,5.33
2017-07-15T16:16:04.472Z,8.63
2017-07-15T16:18:31.933Z,3.23
2017-07-15T16:20:58.118Z,5.50
2017-07-15T16:23:24.398Z,4.37
2017-07-15T16:25:50.562Z,6.47
2017-07-15T16:28:27.144Z,3.93
2017-07-15T16:30:54.798Z,5.00
2017-07-15T16:33:20.954Z,4.93
2017-07-15T16:35:47.164Z,4.10
2017-07-15T16:38:13.779Z,4.70
2017-07-15T16:40:39.939Z,7.13
2017-07-15T16:43:06.140Z,7.10
2017-07-15T16:45:32.691Z,5.03
2017-07-15T16:47:59.131Z,7.57
2017-07-15T16:50:25.276Z,3.97
2017-07-15T16:52:52.189Z,3.63
2017-07-15T16:55:18.347Z,4.67
2017-07-15T16:57:44.519Z,5.73
2017-07-15T17:00:12.230Z,12.60
2017-07-15T17:02:38.390Z,9.30
2017-07-15T17:05:05.303Z,5.63
2017-07-15T17:07:31.608Z,7.33
2017-07-15T17:09:57.761Z,3.23
2017-07-15T17:12:23.904Z,7.93
2017-07-15T17:14:50.093Z,11.37
2017-07-15T17:17:16.338Z,3.47
2017-07-15T17:19:42.737Z,7.53
2017-07-15T17:22:09.431Z,10.40
2017-07-15T17:24:35.588Z,7.87
2017-07-15T17:27:01.796Z,5.57
2017-07-15T17:29:28.462Z,6.40
2017-07-15T17:31:56.055Z,6.37
2017-07-15T17:34:22.213Z,6.40
2017-07-15T17:36:48.407Z,8.77
2017-07-15T17:39:14.603Z,11.10
2017-07-15T17:41:40.760Z,6.47
2017-07-15T17:44:07.581Z,5.37
2017-07-15T17:46:33.763Z,3.63
2017-07-15T17:48:59.945Z,5.90
2017-07-15T17:51:26.199Z,5.13
2017-07-15T17:53:52.373Z,9.50
2017-07-15T17:56:18.816Z,7.10
2017-07-15T17:58:45.013Z,5.07
2017-07-15T18:01:11.180Z,5.40
2017-07-15T18:03:37.327Z,8.13
2017-07-15T18:06:04.297Z,10.00
2017-07-15T18:08:30.457Z,10.13
2017-07-15T18:10:56.606Z,6.87
2017-07-15T18:13:24.058Z,7.40
2017-07-15T18:15:50.949Z,7.53
2017-07-15T18:18:17.103Z,8.53
2017-07-15T18:20:44.153Z,12.10
2017-07-15T18:23:11.051Z,8.63
2017-07-15T18:25:37.718Z,8.17
2017-07-15T18:28:05.120Z,5.90
2017-07-15T18:30:32.519Z,8.97
2017-07-15T18:33:00.105Z,5.87
2017-07-15T18:35:26.261Z,6.60
2017-07-15T18:37:53.148Z,13.70
2017-07-15T18:40:19.305Z,4.00
2017-07-15T18:42:45.528Z,9.43
2017-07-15T18:45:12.520Z,6.23
2017-07-15T18:47:39.440Z,7.67
2017-07-15T18:50:06.685Z,5.23
2017-07-15T18:52:33.771Z,3.10
2017-07-15T18:54:59.931Z,4.30
2017-07-15T18:57:26.825Z,4.53
2017-07-15T18:59:54.117Z,4.50
2017-07-15T19:02:21.039Z,5.67
2017-07-15T19:04:47.216Z,6.23
2017-07-15T19:07:14.738Z,6.00
2017-07-15T19:09:40.909Z,6.50
2017-07-15T19:12:07.968Z,5.53
2017-07-15T19:14:37.024Z,13.87
2017-07-15T19:17:03.175Z,21.50
2017-07-15T19:19:31.373Z,17.50
2017-07-15T19:21:58.007Z,4.40
2017-07-15T19:24:26.967Z,7.43
2017-07-15T19:26:53.174Z,10.43
2017-07-15T19:29:19.441Z,7.47
2017-07-15T19:31:46.903Z,10.10
2017-07-15T19:34:14.913Z,9.93
2017-07-15T19:36:41.186Z,8.03
2017-07-15T19:39:08.058Z,8.63
2017-07-15T19:41:35.010Z,6.60
2017-07-15T19:44:02.204Z,9.20
2017-07-15T19:46:29.246Z,4.80
2017-07-15T19:48:56.656Z,4.17
2017-07-15T19:51:22.820Z,7.93
2017-07-15T19:53:49.124Z,10.43
2017-07-15T19:56:16.167Z,13.57
2017-07-15T19:58:42.350Z,12.00
2017-07-15T20:01:09.662Z,9.10
2017-07-15T20:03:35.863Z,9.83
2017-07-15T20:06:02.089Z,8.93
2017-07-15T20:08:29.463Z,9.50
2017-07-15T20:10:56.504Z,43.60
2017-07-15T20:13:22.661Z,72.63
2017-07-15T20:15:48.871Z,79.80
2017-07-15T20:18:16.128Z,48.40
2017-07-15T20:20:42.531Z,19.30
2017-07-15T20:23:08.728Z,17.93
2017-07-15T20:25:34.893Z,11.37
2017-07-15T20:28:01.092Z,11.83
2017-07-15T20:30:28.005Z,28.93
2017-07-15T20:32:55.688Z,7.73
2017-07-15T20:35:25.364Z,9.93
2017-07-15T20:37:52.882Z,14.30
2017-07-15T20:40:20.947Z,14.43
2017-07-15T20:42:47.136Z,8.37
2017-07-15T20:45:13.970Z,12.37
2017-07-15T20:47:40.564Z,7.90
2017-07-15T20:50:06.906Z,10.57
2017-07-15T20:52:40.780Z,10.80
2017-07-15T20:55:08.084Z,19.13
2017-07-15T20:57:34.260Z,13.27
2017-07-15T21:00:00.565Z,14.73
2017-07-15T21:02:27.709Z,11.87
2017-07-15T21:04:54.611Z,10.50
2017-07-15T21:07:21.773Z,8.70
2017-07-15T21:09:47.973Z,15.13
2017-07-15T21:12:14.155Z,12.00
2017-07-15T21:14:42.667Z,11.93
2017-07-15T21:17:08.875Z,10.13
2017-07-15T21:19:35.669Z,12.33
2017-07-15T21:22:03.828Z,13.80
2017-07-15T21:24:30.432Z,9.10
2017-07-15T21:26:57.984Z,9.57
2017-07-15T21:29:26.822Z,11.83
2017-07-15T21:31:56.828Z,9.53
2017-07-15T21:34:24.460Z,8.47
2017-07-15T21:36:52.872Z,12.63
2017-07-15T21:39:22.678Z,13.03
2017-07-15T21:41:49.408Z,42.77
2017-07-15T21:44:15.668Z,50.67
2017-07-15T21:46:42.231Z,20.13
2017-07-15T21:49:08.715Z,13.13
2017-07-15T21:51:35.507Z,8.87
2017-07-15T21:54:01.744Z,10.33
2017-07-15T21:56:27.944Z,14.13
2017-07-15T21:58:54.281Z,10.83
2017-07-15T22:01:20.971Z,9.60
2017-07-15T22:03:47.539Z,12.33
2017-07-15T22:06:14.634Z,14.50
2017-07-15T22:08:41.514Z,9.27
2017-07-15T22:11:08.003Z,15.67
2017-07-15T22:13:34.155Z,11.63
2017-07-15T22:16:00.613Z,8.40
2017-07-15T22:18:28.075Z,17.10
2017-07-15T22:20:56.719Z,13.70
2017-07-15T22:23:22.914Z,18.63
2017-07-15T22:25:50.103Z,15.17
2017-07-15T22:28:16.277Z,13.60
2017-07-15T22:30:42.503Z,17.87
2017-07-15T22:33:08.670Z,18.53
2017-07-15T22:35:36.089Z,14.67
2017-07-15T22:38:04.387Z,23.70
2017-07-15T22:40:31.323Z,16.90
2017-07-15T22:42:58.262Z,14.20
2017-07-15T22:45:24.433Z,20.20
2017-07-15T22:47:50.937Z,17.90
2017-07-15T22:50:17.830Z,17.70
2017-07-15T22:52:44.212Z,22.27
2017-07-15T22:55:10.597Z,13.73
2017-07-15T22:57:36.749Z,17.87
2017-07-15T23:00:04.365Z,12.67
2017-07-15T23:02:31.123Z,15.20
2017-07-15T23:04:58.478Z,21.27
2017-07-15T23:07:24.635Z,11.67
2017-07-15T23:09:50.937Z,16.87
2017-07-15T23:12:17.156Z,17.93
2017-07-15T23:14:43.327Z,14.03
2017-07-15T23:17:09.505Z,12.17
2017-07-15T23:19:35.658Z,14.90
2017-07-15T23:22:01.867Z,10.03
2017-07-15T23:24:28.799Z,17.80
2017-07-15T23:26:54.960Z,17.73
2017-07-15T23:29:21.872Z,13.67
2017-07-15T23:31:48.080Z,14.30
2017-07-15T23:34:14.227Z,15.47
2017-07-15T23:36:41.693Z,16.53
2017-07-15T23:39:09.658Z,19.23
2017-07-15T23:41:35.807Z,18.40
2017-07-15T23:44:02.003Z,14.13
2017-07-15T23:46:28.188Z,21.23
2017-07-15T23:48:55.097Z,17.63
2017-07-15T23:51:21.285Z,15.80
2017-07-15T23:53:47.596Z,20.63
2017-07-15T23:56:13.791Z,20.97
2017-07-15T23:58:39.944Z,23.80
